sensor_id;sensor_type;location;lat;lon;timestamp;P1;durP1;ratioP1;P2;durP2;ratioP2
417;SDS011;49;48.530;9.200;2024-03-06T00:00:13;14.50;;;8.00;;
417;SDS011;49;48.530;9.200;2024-03-06T00:02:45;19.43;;;8.57;;
417;SDS011;49;48.530;9.200;2024-03-06T00:05:20;11.73;;;7.97;;
417;SDS011;49;48.530;9.200;2024-03-06T00:07:51;11.33;;;7.43;;
417;SDS011;49;48.530;9.200;2024-03-06T00:10:20;10.83;;;7.50;;
417;SDS011;49;48.530;9.200;2024-03-06T00:12:47;14.73;;;7.93;;
417;SDS011;49;48.530;9.200;2024-03-06T00:15:15;11.80;;;7.53;;
417;SDS011;49;48.530;9.200;2024-03-06T00:17:47;10.90;;;8.00;;
417;SDS011;49;48.530;9.200;2024-03-06T00:20:19;14.20;;;7.50;;
417;SDS011;49;48.530;9.200;2024-03-06T00:22:47;13.17;;;8.50;;
417;SDS011;49;48.530;9.200;2024-03-06T00:25:14;13.83;;;8.17;;
417;SDS011;49;48.530;9.200;2024-03-06T00:27:49;12.83;;;7.80;;
417;SDS011;49;48.530;9.200;2024-03-06T00:30:17;12.37;;;8.80;;
417;SDS011;49;48.530;9.200;2024-03-06T00:32:46;10.23;;;7.67;;
417;SDS011;49;48.530;9.200;2024-03-06T00:35:13;13.23;;;8.40;;
417;SDS011;49;48.530;9.200;2024-03-06T00:37:44;16.83;;;9.27;;
417;SDS011;49;48.530;9.200;2024-03-06T00:40:12;10.40;;;8.00;;
417;SDS011;49;48.530;9.200;2024-03-06T00:42:42;13.27;;;7.70;;
417;SDS011;49;48.530;9.200;2024-03-06T00:45:09;15.63;;;9.60;;
417;SDS011;49;48.530;9.200;2024-03-06T00:47:42;10.53;;;7.57;;
417;SDS011;49;48.530;9.200;2024-03-06T00:50:21;12.43;;;7.70;;
417;SDS011;49;48.530;9.200;2024-03-06T00:52:49;11.60;;;8.10;;
417;SDS011;49;48.530;9.200;2024-03-06T00:55:17;15.37;;;9.40;;
417;SDS011;49;48.530;9.200;2024-03-06T00:57:43;19.90;;;9.23;;
417;SDS011;49;48.530;9.200;2024-03-06T01:00:12;16.47;;;8.60;;
417;SDS011;49;48.530;9.200;2024-03-06T01:02:42;11.60;;;8.13;;
417;SDS011;49;48.530;9.200;2024-03-06T01:05:09;13.93;;;8.63;;
417;SDS011;49;48.530;9.200;2024-03-06T01:07:40;16.33;;;8.30;;
417;SDS011;49;48.530;9.200;2024-03-06T01:10:09;14.00;;;8.60;;
417;SDS011;49;48.530;9.200;2024-03-06T01:12:38;13.60;;;8.50;;
417;SDS011;49;48.530;9.200;2024-03-06T01:15:12;11.30;;;8.10;;
417;SDS011;49;48.530;9.200;2024-03-06T01:17:50;14.40;;;8.93;;
417;SDS011;49;48.530;9.200;2024-03-06T01:20:17;18.10;;;8.80;;
417;SDS011;49;48.530;9.200;2024-03-06T01:22:50;16.33;;;8.07;;
417;SDS011;49;48.530;9.200;2024-03-06T01:25:25;13.17;;;8.60;;
417;SDS011;49;48.530;9.200;2024-03-06T01:27:55;10.77;;;7.47;;
417;SDS011;49;48.530;9.200;2024-03-06T01:30:24;12.07;;;8.43;;
417;SDS011;49;48.530;9.200;2024-03-06T01:32:52;13.00;;;8.40;;
417;SDS011;49;48.530;9.200;2024-03-06T01:35:24;15.40;;;8.70;;
417;SDS011;49;48.530;9.200;2024-03-06T01:37:58;14.67;;;9.23;;
417;SDS011;49;48.530;9.200;2024-03-06T01:40:26;11.63;;;8.27;;
417;SDS011;49;48.530;9.200;2024-03-06T01:42:54;15.80;;;8.20;;
417;SDS011;49;48.530;9.200;2024-03-06T01:45:21;13.70;;;8.67;;
417;SDS011;49;48.530;9.200;2024-03-06T01:47:49;17.20;;;9.07;;
417;SDS011;49;48.530;9.200;2024-03-06T01:50:16;12.70;;;8.43;;
417;SDS011;49;48.530;9.200;2024-03-06T01:52:44;15.30;;;8.93;;
417;SDS011;49;48.530;9.200;2024-03-06T01:55:16;11.30;;;8.60;;
417;SDS011;49;48.530;9.200;2024-03-06T01:57:44;16.60;;;10.00;;
417;SDS011;49;48.530;9.200;2024-03-06T02:00:11;12.47;;;8.40;;
417;SDS011;49;48.530;9.200;2024-03-06T02:02:42;16.03;;;9.00;;
417;SDS011;49;48.530;9.200;2024-03-06T02:05:09;13.77;;;8.20;;
417;SDS011;49;48.530;9.200;2024-03-06T02:07:40;11.43;;;8.80;;
417;SDS011;49;48.530;9.200;2024-03-06T02:10:09;10.87;;;8.87;;
417;SDS011;49;48.530;9.200;2024-03-06T02:12:39;19.20;;;9.73;;
417;SDS011;49;48.530;9.200;2024-03-06T02:15:07;12.43;;;8.83;;
417;SDS011;49;48.530;9.200;2024-03-06T02:17:37;12.80;;;9.17;;
417;SDS011;49;48.530;9.200;2024-03-06T02:20:08;18.60;;;8.47;;
417;SDS011;49;48.530;9.200;2024-03-06T02:22:39;15.73;;;9.53;;
417;SDS011;49;48.530;9.200;2024-03-06T02:25:06;13.50;;;9.00;;
417;SDS011;49;48.530;9.200;2024-03-06T02:27:34;13.57;;;8.80;;
417;SDS011;49;48.530;9.200;2024-03-06T02:30:05;11.50;;;8.20;;
417;SDS011;49;48.530;9.200;2024-03-06T02:32:33;18.60;;;9.20;;
417;SDS011;49;48.530;9.200;2024-03-06T02:35:00;11.77;;;9.20;;
417;SDS011;49;48.530;9.200;2024-03-06T02:37:33;14.17;;;10.00;;
417;SDS011;49;48.530;9.200;2024-03-06T02:40:06;13.30;;;9.83;;
417;SDS011;49;48.530;9.200;2024-03-06T02:42:36;11.10;;;8.57;;
417;SDS011;49;48.530;9.200;2024-03-06T02:45:08;14.77;;;9.50;;
417;SDS011;49;48.530;9.200;2024-03-06T02:47:37;11.40;;;8.70;;
417;SDS011;49;48.530;9.200;2024-03-06T02:50:05;14.67;;;10.43;;
417;SDS011;49;48.530;9.200;2024-03-06T02:52:33;18.50;;;9.50;;
417;SDS011;49;48.530;9.200;2024-03-06T02:55:00;12.17;;;8.63;;
417;SDS011;49;48.530;9.200;2024-03-06T02:57:30;15.00;;;9.43;;
417;SDS011;49;48.530;9.200;2024-03-06T02:59:59;14.23;;;8.67;;
417;SDS011;49;48.530;9.200;2024-03-06T03:02:27;19.63;;;9.70;;
417;SDS011;49;48.530;9.200;2024-03-06T03:04:55;14.33;;;8.90;;
417;SDS011;49;48.530;9.200;2024-03-06T03:07:22;11.77;;;8.97;;
417;SDS011;49;48.530;9.200;2024-03-06T03:09:49;16.20;;;8.80;;
417;SDS011;49;48.530;9.200;2024-03-06T03:12:17;13.23;;;8.77;;
417;SDS011;49;48.530;9.200;2024-03-06T03:14:45;11.60;;;8.80;;
417;SDS011;49;48.530;9.200;2024-03-06T03:17:14;18.03;;;10.20;;
417;SDS011;49;48.530;9.200;2024-03-06T03:19:41;15.27;;;9.60;;
417;SDS011;49;48.530;9.200;2024-03-06T03:22:08;13.43;;;9.60;;
417;SDS011;49;48.530;9.200;2024-03-06T03:24:35;13.33;;;8.33;;
417;SDS011;49;48.530;9.200;2024-03-06T03:27:03;12.77;;;9.10;;
417;SDS011;49;48.530;9.200;2024-03-06T03:29:30;13.00;;;8.80;;
417;SDS011;49;48.530;9.200;2024-03-06T03:31:58;12.83;;;8.73;;
417;SDS011;49;48.530;9.200;2024-03-06T03:34:25;12.50;;;8.80;;
417;SDS011;49;48.530;9.200;2024-03-06T03:36:52;15.90;;;9.63;;
417;SDS011;49;48.530;9.200;2024-03-06T03:39:20;12.27;;;8.13;;
417;SDS011;49;48.530;9.200;2024-03-06T03:41:49;13.40;;;9.30;;
417;SDS011;49;48.530;9.200;2024-03-06T03:44:16;15.90;;;9.73;;
417;SDS011;49;48.530;9.200;2024-03-06T03:46:45;14.00;;;9.30;;
417;SDS011;49;48.530;9.200;2024-03-06T03:49:14;16.63;;;9.40;;
417;SDS011;49;48.530;9.200;2024-03-06T03:51:41;12.43;;;8.50;;
417;SDS011;49;48.530;9.200;2024-03-06T03:54:09;14.87;;;9.23;;
417;SDS011;49;48.530;9.200;2024-03-06T03:56:36;12.80;;;9.27;;
417;SDS011;49;48.530;9.200;2024-03-06T03:59:03;16.40;;;9.00;;
417;SDS011;49;48.530;9.200;2024-03-06T04:01:30;11.30;;;8.60;;
417;SDS011;49;48.530;9.200;2024-03-06T04:03:57;12.60;;;8.50;;
417;SDS011;49;48.530;9.200;2024-03-06T04:06:26;13.90;;;9.27;;
417;SDS011;49;48.530;9.200;2024-03-06T04:08:54;12.70;;;8.70;;
417;SDS011;49;48.530;9.200;2024-03-06T04:11:21;13.30;;;9.17;;
417;SDS011;49;48.530;9.200;2024-03-06T04:13:48;20.50;;;10.00;;
417;SDS011;49;48.530;9.200;2024-03-06T04:16:15;15.67;;;9.93;;
417;SDS011;49;48.530;9.200;2024-03-06T04:18:43;15.23;;;9.73;;
417;SDS011;49;48.530;9.200;2024-03-06T04:21:11;16.63;;;10.17;;
417;SDS011;49;48.530;9.200;2024-03-06T04:23:41;11.50;;;9.20;;
417;SDS011;49;48.530;9.200;2024-03-06T04:26:10;12.60;;;9.00;;
417;SDS011;49;48.530;9.200;2024-03-06T04:28:37;13.00;;;8.90;;
417;SDS011;49;48.530;9.200;2024-03-06T04:31:04;11.73;;;8.13;;
417;SDS011;49;48.530;9.200;2024-03-06T04:33:31;16.10;;;9.17;;
417;SDS011;49;48.530;9.200;2024-03-06T04:36:00;12.43;;;9.40;;
417;SDS011;49;48.530;9.200;2024-03-06T04:38:30;21.33;;;9.60;;
417;SDS011;49;48.530;9.200;2024-03-06T04:40:59;17.93;;;9.90;;
417;SDS011;49;48.530;9.200;2024-03-06T04:43:26;14.37;;;9.00;;
417;SDS011;49;48.530;9.200;2024-03-06T04:45:54;11.57;;;8.90;;
417;SDS011;49;48.530;9.200;2024-03-06T04:48:29;19.13;;;9.50;;
417;SDS011;49;48.530;9.200;2024-03-06T04:50:56;13.40;;;8.93;;
417;SDS011;49;48.530;9.200;2024-03-06T04:53:23;13.30;;;8.10;;
417;SDS011;49;48.530;9.200;2024-03-06T04:55:50;11.73;;;8.33;;
417;SDS011;49;48.530;9.200;2024-03-06T04:58:19;14.47;;;8.43;;
417;SDS011;49;48.530;9.200;2024-03-06T05:00:47;12.33;;;8.20;;
417;SDS011;49;48.530;9.200;2024-03-06T05:03:15;17.23;;;8.17;;
417;SDS011;49;48.530;9.200;2024-03-06T05:05:44;13.27;;;8.33;;
417;SDS011;49;48.530;9.200;2024-03-06T05:08:11;12.80;;;8.40;;
417;SDS011;49;48.530;9.200;2024-03-06T05:10:38;12.83;;;8.50;;
417;SDS011;49;48.530;9.200;2024-03-06T05:13:05;12.20;;;8.20;;
417;SDS011;49;48.530;9.200;2024-03-06T05:15:34;13.07;;;9.53;;
417;SDS011;49;48.530;9.200;2024-03-06T05:18:01;14.90;;;9.50;;
417;SDS011;49;48.530;9.200;2024-03-06T05:20:28;14.17;;;9.37;;
417;SDS011;49;48.530;9.200;2024-03-06T05:22:56;15.53;;;8.73;;
417;SDS011;49;48.530;9.200;2024-03-06T05:25:23;12.83;;;9.33;;
417;SDS011;49;48.530;9.200;2024-03-06T05:27:51;14.53;;;8.23;;
417;SDS011;49;48.530;9.200;2024-03-06T05:30:18;13.10;;;8.40;;
417;SDS011;49;48.530;9.200;2024-03-06T05:33:01;16.30;;;8.30;;
417;SDS011;49;48.530;9.200;2024-03-06T05:35:28;14.83;;;8.53;;
417;SDS011;49;48.530;9.200;2024-03-06T05:37:55;21.20;;;8.67;;
417;SDS011;49;48.530;9.200;2024-03-06T05:40:22;12.03;;;9.13;;
417;SDS011;49;48.530;9.200;2024-03-06T05:42:49;22.60;;;9.47;;
417;SDS011;49;48.530;9.200;2024-03-06T05:45:16;12.73;;;8.60;;
417;SDS011;49;48.530;9.200;2024-03-06T05:47:43;14.73;;;8.80;;
417;SDS011;49;48.530;9.200;2024-03-06T05:50:12;15.23;;;8.80;;
417;SDS011;49;48.530;9.200;2024-03-06T05:52:40;13.03;;;9.37;;
417;SDS011;49;48.530;9.200;2024-03-06T05:55:07;16.70;;;10.17;;
417;SDS011;49;48.530;9.200;2024-03-06T05:57:34;13.67;;;9.70;;
417;SDS011;49;48.530;9.200;2024-03-06T06:00:01;16.60;;;9.83;;
417;SDS011;49;48.530;9.200;2024-03-06T06:02:29;11.27;;;9.10;;
417;SDS011;49;48.530;9.200;2024-03-06T06:04:57;14.73;;;9.90;;
417;SDS011;49;48.530;9.200;2024-03-06T06:07:26;12.53;;;9.27;;
417;SDS011;49;48.530;9.200;2024-03-06T06:09:53;18.13;;;10.63;;
417;SDS011;49;48.530;9.200;2024-03-06T06:12:20;14.60;;;9.90;;
417;SDS011;49;48.530;9.200;2024-03-06T06:14:47;15.43;;;9.80;;
417;SDS011;49;48.530;9.200;2024-03-06T06:17:14;18.73;;;9.40;;
417;SDS011;49;48.530;9.200;2024-03-06T06:19:42;16.43;;;9.90;;
417;SDS011;49;48.530;9.200;2024-03-06T06:22:10;14.80;;;9.70;;
417;SDS011;49;48.530;9.200;2024-03-06T06:27:08;20.07;;;10.90;;
417;SDS011;49;48.530;9.200;2024-03-06T06:29:37;14.97;;;9.00;;
417;SDS011;49;48.530;9.200;2024-03-06T06:32:04;18.73;;;9.83;;
417;SDS011;49;48.530;9.200;2024-03-06T06:34:31;12.03;;;8.40;;
417;SDS011;49;48.530;9.200;2024-03-06T06:36:58;15.20;;;8.63;;
417;SDS011;49;48.530;9.200;2024-03-06T06:39:25;17.20;;;9.30;;
417;SDS011;49;48.530;9.200;2024-03-06T06:41:53;13.50;;;9.90;;
417;SDS011;49;48.530;9.200;2024-03-06T06:44:20;16.97;;;9.87;;
417;SDS011;49;48.530;9.200;2024-03-06T06:46:47;15.30;;;9.20;;
417;SDS011;49;48.530;9.200;2024-03-06T06:49:14;14.93;;;9.40;;
417;SDS011;49;48.530;9.200;2024-03-06T06:51:42;15.53;;;9.30;;
417;SDS011;49;48.530;9.200;2024-03-06T06:54:09;14.00;;;10.00;;
417;SDS011;49;48.530;9.200;2024-03-06T06:56:36;13.87;;;9.03;;
417;SDS011;49;48.530;9.200;2024-03-06T06:59:05;13.20;;;9.33;;
417;SDS011;49;48.530;9.200;2024-03-06T07:01:32;22.00;;;9.17;;
417;SDS011;49;48.530;9.200;2024-03-06T07:03:59;13.40;;;8.57;;
417;SDS011;49;48.530;9.200;2024-03-06T07:06:26;12.00;;;8.20;;
417;SDS011;49;48.530;9.200;2024-03-06T07:08:53;17.60;;;8.97;;
417;SDS011;49;48.530;9.200;2024-03-06T07:11:19;13.77;;;8.37;;
417;SDS011;49;48.530;9.200;2024-03-06T07:13:47;18.87;;;8.60;;
417;SDS011;49;48.530;9.200;2024-03-06T07:16:15;13.90;;;9.00;;
417;SDS011;49;48.530;9.200;2024-03-06T07:18:42;14.90;;;8.63;;
417;SDS011;49;48.530;9.200;2024-03-06T07:21:09;17.77;;;8.80;;
417;SDS011;49;48.530;9.200;2024-03-06T07:23:36;14.07;;;8.07;;
417;SDS011;49;48.530;9.200;2024-03-06T07:26:03;12.17;;;8.47;;
417;SDS011;49;48.530;9.200;2024-03-06T07:28:30;22.33;;;8.20;;
417;SDS011;49;48.530;9.200;2024-03-06T07:30:58;21.33;;;12.10;;
417;SDS011;49;48.530;9.200;2024-03-06T07:33:26;16.87;;;10.00;;
417;SDS011;49;48.530;9.200;2024-03-06T07:35:53;15.20;;;8.77;;
417;SDS011;49;48.530;9.200;2024-03-06T07:38:21;22.50;;;8.87;;
417;SDS011;49;48.530;9.200;2024-03-06T07:40:49;12.40;;;8.03;;
417;SDS011;49;48.530;9.200;2024-03-06T07:43:17;20.13;;;10.80;;
417;SDS011;49;48.530;9.200;2024-03-06T07:45:44;16.07;;;9.00;;
417;SDS011;49;48.530;9.200;2024-03-06T07:48:12;17.47;;;9.90;;
417;SDS011;49;48.530;9.200;2024-03-06T07:50:41;20.00;;;9.07;;
417;SDS011;49;48.530;9.200;2024-03-06T07:53:08;13.87;;;8.60;;
417;SDS011;49;48.530;9.200;2024-03-06T07:55:35;18.03;;;8.87;;
417;SDS011;49;48.530;9.200;2024-03-06T07:58:04;17.43;;;9.17;;
417;SDS011;49;48.530;9.200;2024-03-06T08:00:30;14.77;;;9.47;;
417;SDS011;49;48.530;9.200;2024-03-06T08:02:57;18.20;;;8.90;;
417;SDS011;49;48.530;9.200;2024-03-06T08:05:25;17.20;;;8.90;;
417;SDS011;49;48.530;9.200;2024-03-06T08:07:54;20.77;;;9.47;;
417;SDS011;49;48.530;9.200;2024-03-06T08:10:21;19.37;;;9.63;;
417;SDS011;49;48.530;9.200;2024-03-06T08:12:48;18.77;;;10.17;;
417;SDS011;49;48.530;9.200;2024-03-06T08:15:15;17.10;;;10.70;;
417;SDS011;49;48.530;9.200;2024-03-06T08:17:43;14.20;;;9.03;;
417;SDS011;49;48.530;9.200;2024-03-06T08:20:10;14.30;;;8.67;;
417;SDS011;49;48.530;9.200;2024-03-06T08:22:38;15.43;;;10.03;;
417;SDS011;49;48.530;9.200;2024-03-06T08:25:09;22.10;;;9.70;;
417;SDS011;49;48.530;9.200;2024-03-06T08:27:37;14.50;;;9.20;;
417;SDS011;49;48.530;9.200;2024-03-06T08:30:05;20.10;;;9.47;;
417;SDS011;49;48.530;9.200;2024-03-06T08:32:34;16.97;;;10.00;;
417;SDS011;49;48.530;9.200;2024-03-06T08:35:02;17.40;;;8.23;;
417;SDS011;49;48.530;9.200;2024-03-06T08:37:30;12.50;;;8.17;;
417;SDS011;49;48.530;9.200;2024-03-06T08:39:58;15.00;;;9.53;;
417;SDS011;49;48.530;9.200;2024-03-06T08:42:27;18.50;;;8.93;;
417;SDS011;49;48.530;9.200;2024-03-06T08:44:54;14.73;;;10.30;;
417;SDS011;49;48.530;9.200;2024-03-06T08:47:21;19.43;;;9.27;;
417;SDS011;49;48.530;9.200;2024-03-06T08:49:48;29.80;;;9.07;;
417;SDS011;49;48.530;9.200;2024-03-06T08:52:16;34.80;;;10.00;;
417;SDS011;49;48.530;9.200;2024-03-06T08:54:43;28.00;;;9.10;;
417;SDS011;49;48.530;9.200;2024-03-06T08:57:10;27.43;;;9.87;;
417;SDS011;49;48.530;9.200;2024-03-06T08:59:38;21.40;;;8.67;;
417;SDS011;49;48.530;9.200;2024-03-06T09:02:12;15.87;;;8.80;;
417;SDS011;49;48.530;9.200;2024-03-06T09:04:40;18.27;;;9.27;;
417;SDS011;49;48.530;9.200;2024-03-06T09:07:07;20.87;;;11.13;;
417;SDS011;49;48.530;9.200;2024-03-06T09:09:35;25.60;;;12.20;;
417;SDS011;49;48.530;9.200;2024-03-06T09:12:03;19.40;;;10.33;;
417;SDS011;49;48.530;9.200;2024-03-06T09:14:31;17.60;;;9.73;;
417;SDS011;49;48.530;9.200;2024-03-06T09:17:00;20.57;;;10.07;;
417;SDS011;49;48.530;9.200;2024-03-06T09:19:27;13.23;;;9.27;;
417;SDS011;49;48.530;9.200;2024-03-06T09:21:55;15.17;;;8.90;;
417;SDS011;49;48.530;9.200;2024-03-06T09:24:22;15.93;;;9.67;;
417;SDS011;49;48.530;9.200;2024-03-06T09:26:50;11.63;;;8.80;;
417;SDS011;49;48.530;9.200;2024-03-06T09:29:17;12.97;;;7.03;;
417;SDS011;49;48.530;9.200;2024-03-06T09:31:46;16.93;;;9.20;;
417;SDS011;49;48.530;9.200;2024-03-06T09:34:15;16.67;;;9.10;;
417;SDS011;49;48.530;9.200;2024-03-06T09:36:45;12.50;;;8.20;;
417;SDS011;49;48.530;9.200;2024-03-06T09:39:15;16.73;;;8.20;;
417;SDS011;49;48.530;9.200;2024-03-06T09:41:45;16.83;;;8.60;;
417;SDS011;49;48.530;9.200;2024-03-06T09:44:12;13.77;;;8.40;;
417;SDS011;49;48.530;9.200;2024-03-06T09:46:41;17.73;;;9.30;;
417;SDS011;49;48.530;9.200;2024-03-06T09:49:10;16.40;;;8.67;;
417;SDS011;49;48.530;9.200;2024-03-06T09:51:40;12.57;;;8.03;;
417;SDS011;49;48.530;9.200;2024-03-06T09:54:10;10.30;;;7.43;;
417;SDS011;49;48.530;9.200;2024-03-06T09:56:40;13.90;;;8.37;;
417;SDS011;49;48.530;9.200;2024-03-06T09:59:08;16.50;;;8.90;;
417;SDS011;49;48.530;9.200;2024-03-06T10:01:35;14.63;;;7.93;;
417;SDS011;49;48.530;9.200;2024-03-06T10:04:19;14.50;;;7.57;;
417;SDS011;49;48.530;9.200;2024-03-06T10:06:48;13.43;;;7.43;;
417;SDS011;49;48.530;9.200;2024-03-06T10:09:16;14.67;;;8.50;;
417;SDS011;49;48.530;9.200;2024-03-06T10:11:43;19.37;;;8.10;;
417;SDS011;49;48.530;9.200;2024-03-06T10:14:11;12.53;;;7.93;;
417;SDS011;49;48.530;9.200;2024-03-06T10:16:51;11.87;;;8.20;;
417;SDS011;49;48.530;9.200;2024-03-06T10:19:22;10.20;;;7.30;;
417;SDS011;49;48.530;9.200;2024-03-06T10:21:51;12.80;;;8.10;;
417;SDS011;49;48.530;9.200;2024-03-06T10:24:19;13.57;;;8.60;;
417;SDS011;49;48.530;9.200;2024-03-06T10:26:46;15.17;;;8.30;;
417;SDS011;49;48.530;9.200;2024-03-06T10:29:15;17.17;;;9.07;;
417;SDS011;49;48.530;9.200;2024-03-06T10:31:47;14.07;;;7.93;;
417;SDS011;49;48.530;9.200;2024-03-06T10:34:15;19.87;;;11.20;;
417;SDS011;49;48.530;9.200;2024-03-06T10:36:43;20.57;;;11.93;;
417;SDS011;49;48.530;9.200;2024-03-06T10:39:12;16.93;;;9.40;;
417;SDS011;49;48.530;9.200;2024-03-06T10:41:42;17.17;;;9.30;;
417;SDS011;49;48.530;9.200;2024-03-06T10:44:11;17.43;;;9.53;;
417;SDS011;49;48.530;9.200;2024-03-06T10:46:43;18.43;;;10.97;;
417;SDS011;49;48.530;9.200;2024-03-06T10:49:12;17.80;;;9.87;;
417;SDS011;49;48.530;9.200;2024-03-06T10:51:40;33.53;;;9.70;;
417;SDS011;49;48.530;9.200;2024-03-06T10:54:11;19.90;;;10.33;;
417;SDS011;49;48.530;9.200;2024-03-06T10:56:41;17.90;;;11.13;;
417;SDS011;49;48.530;9.200;2024-03-06T10:59:09;18.53;;;10.20;;
417;SDS011;49;48.530;9.200;2024-03-06T11:01:39;16.50;;;8.37;;
417;SDS011;49;48.530;9.200;2024-03-06T11:04:09;22.57;;;12.67;;
417;SDS011;49;48.530;9.200;2024-03-06T11:06:37;65.87;;;33.37;;
417;SDS011;49;48.530;9.200;2024-03-06T11:09:04;26.30;;;13.57;;
417;SDS011;49;48.530;9.200;2024-03-06T11:11:46;14.77;;;9.97;;
417;SDS011;49;48.530;9.200;2024-03-06T11:14:14;19.93;;;9.63;;
417;SDS011;49;48.530;9.200;2024-03-06T11:17:04;12.67;;;9.07;;
417;SDS011;49;48.530;9.200;2024-03-06T11:20:07;14.87;;;10.90;;
417;SDS011;49;48.530;9.200;2024-03-06T11:28:30;15.57;;;10.47;;
417;SDS011;49;48.530;9.200;2024-03-06T11:30:59;15.83;;;9.57;;
417;SDS011;49;48.530;9.200;2024-03-06T11:33:28;16.60;;;11.00;;
417;SDS011;49;48.530;9.200;2024-03-06T11:36:14;14.40;;;10.43;;
417;SDS011;49;48.530;9.200;2024-03-06T11:38:47;15.60;;;11.10;;
417;SDS011;49;48.530;9.200;2024-03-06T11:41:18;23.90;;;11.80;;
417;SDS011;49;48.530;9.200;2024-03-06T11:43:51;46.30;;;26.30;;
417;SDS011;49;48.530;9.200;2024-03-06T11:46:20;16.40;;;11.70;;
417;SDS011;49;48.530;9.200;2024-03-06T11:48:51;21.47;;;12.17;;
417;SDS011;49;48.530;9.200;2024-03-06T11:51:22;16.60;;;10.83;;
417;SDS011;49;48.530;9.200;2024-03-06T11:53:50;15.23;;;11.03;;
417;SDS011;49;48.530;9.200;2024-03-06T11:56:17;22.53;;;11.00;;
417;SDS011;49;48.530;9.200;2024-03-06T11:58:45;17.93;;;12.03;;
417;SDS011;49;48.530;9.200;2024-03-06T12:01:14;18.37;;;13.00;;
417;SDS011;49;48.530;9.200;2024-03-06T12:03:43;19.40;;;13.90;;
417;SDS011;49;48.530;9.200;2024-03-06T12:06:10;17.93;;;12.93;;
417;SDS011;49;48.530;9.200;2024-03-06T12:08:38;21.53;;;13.40;;
417;SDS011;49;48.530;9.200;2024-03-06T12:11:05;18.80;;;13.30;;
417;SDS011;49;48.530;9.200;2024-03-06T12:13:33;19.83;;;13.20;;
417;SDS011;49;48.530;9.200;2024-03-06T12:16:04;21.50;;;12.80;;
417;SDS011;49;48.530;9.200;2024-03-06T12:18:34;21.20;;;13.60;;
417;SDS011;49;48.530;9.200;2024-03-06T12:21:02;21.90;;;14.60;;
417;SDS011;49;48.530;9.200;2024-03-06T12:23:31;20.70;;;13.40;;
417;SDS011;49;48.530;9.200;2024-03-06T12:26:05;19.93;;;13.70;;
417;SDS011;49;48.530;9.200;2024-03-06T12:28:34;25.47;;;13.57;;
417;SDS011;49;48.530;9.200;2024-03-06T12:31:01;19.73;;;14.30;;
417;SDS011;49;48.530;9.200;2024-03-06T12:33:29;21.57;;;15.07;;
417;SDS011;49;48.530;9.200;2024-03-06T12:36:05;24.43;;;15.03;;
417;SDS011;49;48.530;9.200;2024-03-06T12:38:35;23.10;;;13.80;;
417;SDS011;49;48.530;9.200;2024-03-06T12:41:03;36.47;;;21.90;;
417;SDS011;49;48.530;9.200;2024-03-06T12:43:31;26.23;;;16.33;;
417;SDS011;49;48.530;9.200;2024-03-06T12:46:01;17.30;;;13.87;;
417;SDS011;49;48.530;9.200;2024-03-06T12:48:28;21.83;;;13.80;;
417;SDS011;49;48.530;9.200;2024-03-06T12:50:56;20.07;;;14.70;;
417;SDS011;49;48.530;9.200;2024-03-06T12:53:31;20.90;;;15.23;;
417;SDS011;49;48.530;9.200;2024-03-06T12:56:00;19.93;;;13.63;;
417;SDS011;49;48.530;9.200;2024-03-06T12:58:27;18.83;;;14.00;;
417;SDS011;49;48.530;9.200;2024-03-06T13:00:56;23.57;;;13.80;;
417;SDS011;49;48.530;9.200;2024-03-06T13:03:23;20.87;;;14.30;;
417;SDS011;49;48.530;9.200;2024-03-06T13:05:50;21.60;;;14.27;;
417;SDS011;49;48.530;9.200;2024-03-06T13:08:18;25.73;;;13.07;;
417;SDS011;49;48.530;9.200;2024-03-06T13:10:47;16.90;;;12.73;;
417;SDS011;49;48.530;9.200;2024-03-06T13:13:14;20.37;;;14.87;;
417;SDS011;49;48.530;9.200;2024-03-06T13:15:42;20.27;;;13.90;;
417;SDS011;49;48.530;9.200;2024-03-06T13:18:11;20.47;;;13.77;;
417;SDS011;49;48.530;9.200;2024-03-06T13:20:38;18.10;;;13.37;;
417;SDS011;49;48.530;9.200;2024-03-06T13:23:08;17.20;;;13.37;;
417;SDS011;49;48.530;9.200;2024-03-06T13:25:36;21.20;;;13.93;;
417;SDS011;49;48.530;9.200;2024-03-06T13:28:05;19.57;;;13.70;;
417;SDS011;49;48.530;9.200;2024-03-06T13:30:33;24.20;;;14.90;;
417;SDS011;49;48.530;9.200;2024-03-06T13:33:06;24.30;;;13.57;;
417;SDS011;49;48.530;9.200;2024-03-06T13:35:33;17.77;;;14.27;;
417;SDS011;49;48.530;9.200;2024-03-06T13:38:00;22.63;;;16.00;;
417;SDS011;49;48.530;9.200;2024-03-06T13:40:28;24.97;;;17.00;;
417;SDS011;49;48.530;9.200;2024-03-06T13:42:55;21.47;;;16.67;;
417;SDS011;49;48.530;9.200;2024-03-06T13:45:24;21.90;;;15.00;;
417;SDS011;49;48.530;9.200;2024-03-06T13:47:54;22.40;;;16.07;;
417;SDS011;49;48.530;9.200;2024-03-06T13:50:21;24.40;;;17.23;;
417;SDS011;49;48.530;9.200;2024-03-06T13:52:50;25.00;;;18.90;;
417;SDS011;49;48.530;9.200;2024-03-06T13:55:22;27.40;;;16.77;;
417;SDS011;49;48.530;9.200;2024-03-06T13:57:51;21.37;;;15.77;;
417;SDS011;49;48.530;9.200;2024-03-06T14:00:20;25.43;;;16.70;;
417;SDS011;49;48.530;9.200;2024-03-06T14:02:50;23.73;;;15.60;;
417;SDS011;49;48.530;9.200;2024-03-06T14:05:18;27.40;;;18.73;;
417;SDS011;49;48.530;9.200;2024-03-06T14:07:51;23.20;;;17.00;;
417;SDS011;49;48.530;9.200;2024-03-06T14:10:19;21.70;;;16.47;;
417;SDS011;49;48.530;9.200;2024-03-06T14:12:47;30.47;;;17.70;;
417;SDS011;49;48.530;9.200;2024-03-06T14:15:16;26.10;;;17.53;;
417;SDS011;49;48.530;9.200;2024-03-06T14:17:44;27.27;;;18.43;;
417;SDS011;49;48.530;9.200;2024-03-06T14:20:13;26.10;;;19.43;;
417;SDS011;49;48.530;9.200;2024-03-06T14:22:41;26.83;;;18.93;;
417;SDS011;49;48.530;9.200;2024-03-06T14:25:08;25.13;;;18.60;;
417;SDS011;49;48.530;9.200;2024-03-06T14:27:38;28.17;;;18.30;;
417;SDS011;49;48.530;9.200;2024-03-06T14:30:06;26.47;;;19.10;;
417;SDS011;49;48.530;9.200;2024-03-06T14:32:36;26.80;;;18.53;;
417;SDS011;49;48.530;9.200;2024-03-06T14:35:04;23.63;;;18.63;;
417;SDS011;49;48.530;9.200;2024-03-06T14:37:34;30.27;;;20.70;;
417;SDS011;49;48.530;9.200;2024-03-06T14:40:04;29.60;;;19.00;;
417;SDS011;49;48.530;9.200;2024-03-06T14:42:33;24.77;;;18.97;;
417;SDS011;49;48.530;9.200;2024-03-06T14:45:00;29.00;;;19.27;;
417;SDS011;49;48.530;9.200;2024-03-06T14:47:30;28.13;;;20.00;;
417;SDS011;49;48.530;9.200;2024-03-06T14:49:57;28.80;;;19.50;;
417;SDS011;49;48.530;9.200;2024-03-06T14:52:24;29.53;;;19.70;;
417;SDS011;49;48.530;9.200;2024-03-06T14:54:53;33.40;;;19.63;;
417;SDS011;49;48.530;9.200;2024-03-06T14:57:21;29.57;;;20.03;;
417;SDS011;49;48.530;9.200;2024-03-06T14:59:49;26.87;;;19.10;;
417;SDS011;49;48.530;9.200;2024-03-06T15:02:18;29.90;;;20.90;;
417;SDS011;49;48.530;9.200;2024-03-06T15:04:46;31.53;;;21.70;;
417;SDS011;49;48.530;9.200;2024-03-06T15:07:13;31.83;;;20.93;;
417;SDS011;49;48.530;9.200;2024-03-06T15:09:41;31.70;;;21.40;;
417;SDS011;49;48.530;9.200;2024-03-06T15:12:10;34.00;;;21.80;;
417;SDS011;49;48.530;9.200;2024-03-06T15:14:43;27.77;;;20.33;;
417;SDS011;49;48.530;9.200;2024-03-06T15:17:10;29.83;;;20.33;;
417;SDS011;49;48.530;9.200;2024-03-06T15:19:40;28.47;;;19.83;;
417;SDS011;49;48.530;9.200;2024-03-06T15:22:07;29.70;;;21.00;;
417;SDS011;49;48.530;9.200;2024-03-06T15:24:36;31.10;;;21.20;;
417;SDS011;49;48.530;9.200;2024-03-06T15:27:04;36.50;;;23.57;;
417;SDS011;49;48.530;9.200;2024-03-06T15:29:33;32.33;;;23.10;;
417;SDS011;49;48.530;9.200;2024-03-06T15:32:02;31.50;;;22.07;;
417;SDS011;49;48.530;9.200;2024-03-06T15:34:31;33.13;;;23.20;;
417;SDS011;49;48.530;9.200;2024-03-06T15:36:59;29.47;;;21.53;;
417;SDS011;49;48.530;9.200;2024-03-06T15:39:27;31.53;;;21.27;;
417;SDS011;49;48.530;9.200;2024-03-06T15:41:56;31.90;;;23.10;;
417;SDS011;49;48.530;9.200;2024-03-06T15:44:23;33.73;;;23.00;;
417;SDS011;49;48.530;9.200;2024-03-06T15:46:52;38.63;;;22.17;;
417;SDS011;49;48.530;9.200;2024-03-06T15:49:21;32.00;;;22.57;;
417;SDS011;49;48.530;9.200;2024-03-06T15:51:51;29.07;;;21.13;;
417;SDS011;49;48.530;9.200;2024-03-06T15:54:21;33.13;;;22.50;;
417;SDS011;49;48.530;9.200;2024-03-06T15:56:50;35.67;;;24.97;;